EBBL

Kleine Brogel Air Base Airport

Kleine Brogel, Belgium
METAR EBBL 201055Z AUTO 08006KT 9999 NCD 00/M05 Q1017 BLU
Observed Flight Rules
Jan-20 @ 10:55 UTC (55 minutes ago) Visual Flight Rules
Wind Visibility Clouds
80° at 6 knots 10,000+ meters
  • Clear skies
Temperatures Readings
Current 0°C / 32°F
Dewpoint -5°C / 23°F
Humidity 69%
Altimeter 30.03" Hg
Pressure 1016.92 hPa
Elevation 64
METAR EBBL 201055Z AUTO 08006KT 9999 NCD 00/M05 Q1017 BLU
Observed Flight Rules
Jan-20 @ 10:55 UTC
(55 minutes ago)
VFR
Wind Visibility
80° at 6 knots 10,000+ meters
Clouds
  • Clear skies
Temperature Dewpoint
0°C / 32°F -5°C / 23°F
Humidity Altimeter Pressure
69% 30.03" Hg 1016.92 hPa